Time;durP1;ratioP1;P1;durP2;ratioP2;P2;SDS_P1;SDS_P2;PMS_P1;PMS_P2;Temp;Humidity;BMP_temperature;BMP_pressure;BME280_temperature;BME280_humidity;BME280_pressure;Samples;Min_cycle;Max_cycle;Signal;HPM_P1;HPM_P2
2021/11/16 00:02:15;;;;;;;23.23;17.95;;;;;;;;;;5115285;27;20410;-86
2021/11/16 00:04:42;;;;;;;23.88;17.70;;;;;;;;;;5107109;27;20394;-86
2021/11/16 00:07:09;;;;;;;23.83;18.27;;;;;;;;;;5114758;27;20425;-86
2021/11/16 00:09:36;;;;;;;23.80;18.42;;;;;;;;;;5111887;27;20428;-86
2021/11/16 00:12:04;;;;;;;22.63;17.35;;;;;;;;;;5116651;27;20412;-86
2021/11/16 00:14:31;;;;;;;22.30;17.70;;;;;;;;;;5110959;27;20420;-86
2021/11/16 00:16:59;;;;;;;22.58;16.83;;;;;;;;;;5113574;27;20442;-86
2021/11/16 00:19:27;;;;;;;21.92;16.77;;;;;;;;;;5106746;27;20415;-86
2021/11/16 00:21:56;;;;;;;21.33;16.23;;;;;;;;;;5111594;27;20389;-86
2021/11/16 00:24:37;;;;;;;19.85;16.10;;;;;;;;;;5113182;27;20393;-86
2021/11/16 00:27:05;;;;;;;21.27;16.20;;;;;;;;;;5107264;27;20900;-86
2021/11/16 00:29:31;;;;;;;20.77;15.98;;;;;;;;;;5113125;27;20450;-86
2021/11/16 00:32:00;;;;;;;20.88;15.90;;;;;;;;;;5112992;27;20393;-85
2021/11/16 00:34:27;;;;;;;21.45;15.80;;;;;;;;;;5102216;27;20427;-86
2021/11/16 00:36:55;;;;;;;19.95;15.52;;;;;;;;;;5113977;27;20401;-86
2021/11/16 00:39:22;;;;;;;21.25;15.57;;;;;;;;;;5115168;27;20410;-86
2021/11/16 00:41:49;;;;;;;20.67;16.33;;;;;;;;;;5114375;27;20398;-86
2021/11/16 00:44:16;;;;;;;21.83;15.75;;;;;;;;;;5111547;27;20409;-86
2021/11/16 00:46:43;;;;;;;20.73;16.63;;;;;;;;;;5115496;27;20762;-87
2021/11/16 00:49:11;;;;;;;20.33;15.60;;;;;;;;;;5112569;27;20398;-86
2021/11/16 00:51:39;;;;;;;20.15;16.08;;;;;;;;;;5113381;27;20494;-85
2021/11/16 00:54:05;;;;;;;21.65;16.55;;;;;;;;;;5113247;27;20407;-86
2021/11/16 00:56:32;;;;;;;20.65;15.75;;;;;;;;;;5114205;27;20404;-86
2021/11/16 00:58:59;;;;;;;19.65;15.27;;;;;;;;;;5113453;27;20406;-86
2021/11/16 01:01:26;;;;;;;20.77;15.90;;;;;;;;;;5108987;27;20393;-86
2021/11/16 01:03:55;;;;;;;21.98;16.27;;;;;;;;;;5109486;27;20404;-86
2021/11/16 01:06:23;;;;;;;21.15;16.17;;;;;;;;;;5109010;27;20412;-87
2021/11/16 01:08:50;;;;;;;21.17;16.45;;;;;;;;;;5109709;27;20445;-86
2021/11/16 01:11:16;;;;;;;21.70;16.33;;;;;;;;;;5109178;27;20395;-86
2021/11/16 01:13:43;;;;;;;22.40;16.27;;;;;;;;;;5111752;27;20502;-86
2021/11/16 01:16:11;;;;;;;21.55;15.75;;;;;;;;;;5106730;27;20403;-86
2021/11/16 01:18:37;;;;;;;18.57;14.77;;;;;;;;;;5111165;27;20422;-86
2021/11/16 01:21:05;;;;;;;19.02;15.10;;;;;;;;;;5107236;27;20393;-86
2021/11/16 01:23:33;;;;;;;20.08;15.48;;;;;;;;;;5110270;27;20399;-86
2021/11/16 01:26:01;;;;;;;21.40;15.48;;;;;;;;;;5110429;27;20454;-86
2021/11/16 01:28:29;;;;;;;21.05;15.65;;;;;;;;;;5108687;27;20776;-86
2021/11/16 01:30:59;;;;;;;19.27;15.10;;;;;;;;;;5109541;27;20489;-86
2021/11/16 01:33:28;;;;;;;21.08;15.85;;;;;;;;;;5112314;27;20443;-87
2021/11/16 01:35:56;;;;;;;20.97;15.90;;;;;;;;;;5105089;28;20909;-86
2021/11/16 01:38:24;;;;;;;21.30;16.17;;;;;;;;;;5114370;27;20746;-86
2021/11/16 01:40:53;;;;;;;21.73;16.00;;;;;;;;;;5108738;27;20473;-86
2021/11/16 01:43:20;;;;;;;20.15;16.05;;;;;;;;;;5112548;28;20421;-86
2021/11/16 01:45:47;;;;;;;21.50;15.75;;;;;;;;;;5106335;28;20410;-85
2021/11/16 01:48:14;;;;;;;22.08;15.90;;;;;;;;;;5111134;28;20405;-86
2021/11/16 01:50:44;;;;;;;20.52;15.73;;;;;;;;;;5106436;28;20959;-85
2021/11/16 01:53:11;;;;;;;21.58;15.77;;;;;;;;;;5103606;28;20947;-85
2021/11/16 01:55:39;;;;;;;20.50;16.50;;;;;;;;;;5111279;28;20954;-86
2021/11/16 01:58:08;;;;;;;20.70;16.23;;;;;;;;;;5109540;28;20415;-86
2021/11/16 02:00:38;;;;;;;20.95;16.02;;;;;;;;;;5110263;28;20415;-86
2021/11/16 02:03:07;;;;;;;20.37;15.73;;;;;;;;;;5105858;28;20399;-86
2021/11/16 02:05:41;;;;;;;21.63;15.73;;;;;;;;;;5110607;27;21016;-87
2021/11/16 02:08:08;;;;;;;20.85;16.00;;;;;;;;;;5110846;27;20874;-86
2021/11/16 02:10:36;;;;;;;20.75;16.02;;;;;;;;;;5113712;27;20409;-86
2021/11/16 02:13:03;;;;;;;23.17;17.02;;;;;;;;;;5133174;27;20382;-86
2021/11/16 02:15:32;;;;;;;20.27;16.50;;;;;;;;;;5126515;27;20412;-86
2021/11/16 02:17:58;;;;;;;23.38;16.73;;;;;;;;;;5111949;27;20731;-86
2021/11/16 02:20:31;;;;;;;21.05;16.05;;;;;;;;;;5110649;27;20401;-86
2021/11/16 02:22:58;;;;;;;21.30;17.00;;;;;;;;;;5112029;27;20411;-86
2021/11/16 02:25:25;;;;;;;22.33;16.93;;;;;;;;;;5112412;27;20455;-86
2021/11/16 02:27:52;;;;;;;22.48;16.80;;;;;;;;;;5112516;27;20445;-86
2021/11/16 02:30:21;;;;;;;22.45;16.58;;;;;;;;;;5106090;27;21408;-86
2021/11/16 02:32:48;;;;;;;21.00;16.70;;;;;;;;;;5107643;27;20741;-86
2021/11/16 02:35:16;;;;;;;20.10;15.77;;;;;;;;;;5113366;27;20415;-86
2021/11/16 02:37:45;;;;;;;20.75;15.75;;;;;;;;;;5109078;27;20406;-86
2021/11/16 02:40:12;;;;;;;20.20;15.27;;;;;;;;;;5108631;27;20391;-85
2021/11/16 02:42:40;;;;;;;20.48;15.90;;;;;;;;;;5112405;27;20466;-85
2021/11/16 02:45:09;;;;;;;19.55;15.50;;;;;;;;;;5093856;27;20408;-85
2021/11/16 02:47:36;;;;;;;20.80;15.90;;;;;;;;;;5113148;27;20455;-85
2021/11/16 02:50:04;;;;;;;19.13;15.35;;;;;;;;;;5110672;27;20805;-85
2021/11/16 02:52:32;;;;;;;19.95;15.45;;;;;;;;;;5110823;27;20406;-85
2021/11/16 02:55:00;;;;;;;20.75;15.85;;;;;;;;;;5111486;27;20431;-86
2021/11/16 02:57:27;;;;;;;20.13;15.70;;;;;;;;;;5112574;27;20441;-86
2021/11/16 02:59:55;;;;;;;21.30;15.82;;;;;;;;;;5112810;27;20462;-85
2021/11/16 03:02:22;;;;;;;20.83;15.02;;;;;;;;;;5107955;27;20422;-85
2021/11/16 03:04:50;;;;;;;20.80;15.68;;;;;;;;;;5105185;28;20420;-86
2021/11/16 03:07:33;;;;;;;21.45;15.85;;;;;;;;;;5103761;28;20483;-86
2021/11/16 03:10:04;;;;;;;20.83;15.63;;;;;;;;;;5102709;28;20436;-87
2021/11/16 03:12:32;;;;;;;19.58;15.35;;;;;;;;;;5104313;28;20487;-87
2021/11/16 03:14:59;;;;;;;19.25;14.43;;;;;;;;;;5106805;28;20415;-87
2021/11/16 03:17:28;;;;;;;18.60;14.33;;;;;;;;;;5101445;28;20425;-87
2021/11/16 03:19:55;;;;;;;17.00;13.27;;;;;;;;;;5099436;28;20908;-86
2021/11/16 03:22:26;;;;;;;21.43;14.03;;;;;;;;;;5103986;28;20406;-87
2021/11/16 03:24:57;;;;;;;20.80;14.30;;;;;;;;;;5099756;28;20454;-87
2021/11/16 03:27:30;;;;;;;17.15;13.38;;;;;;;;;;5104016;28;20443;-87
2021/11/16 03:29:59;;;;;;;18.63;14.10;;;;;;;;;;5102417;28;20442;-87
2021/11/16 03:32:31;;;;;;;17.77;13.73;;;;;;;;;;5105459;28;20868;-84
2021/11/16 03:34:58;;;;;;;16.58;12.85;;;;;;;;;;5101471;28;20502;-87
2021/11/16 03:37:30;;;;;;;18.13;13.32;;;;;;;;;;5101340;28;20767;-86
2021/11/16 03:39:57;;;;;;;18.08;13.20;;;;;;;;;;5101852;28;20461;-86
2021/11/16 03:42:26;;;;;;;17.05;13.35;;;;;;;;;;5101465;28;20457;-85
2021/11/16 03:44:53;;;;;;;15.43;12.38;;;;;;;;;;5102372;28;20502;-86
2021/11/16 03:47:20;;;;;;;18.60;13.18;;;;;;;;;;5100533;28;20513;-86
2021/11/16 03:49:48;;;;;;;17.25;12.98;;;;;;;;;;5104367;28;20400;-85
2021/11/16 03:52:18;;;;;;;15.88;12.20;;;;;;;;;;5099025;28;20396;-87
2021/11/16 03:54:45;;;;;;;18.13;12.75;;;;;;;;;;5099736;28;20418;-86
2021/11/16 03:57:12;;;;;;;16.08;12.88;;;;;;;;;;5098402;28;20393;-86
2021/11/16 03:59:40;;;;;;;16.52;12.95;;;;;;;;;;5103203;28;20407;-86
2021/11/16 04:02:07;;;;;;;15.45;12.52;;;;;;;;;;5099597;28;20915;-87
2021/11/16 04:04:34;;;;;;;16.23;12.97;;;;;;;;;;5105991;28;20406;-86
2021/11/16 04:07:01;;;;;;;16.77;12.88;;;;;;;;;;5102984;28;20403;-86
2021/11/16 04:09:27;;;;;;;15.93;12.43;;;;;;;;;;5103346;28;20404;-86
2021/11/16 04:11:54;;;;;;;18.10;13.52;;;;;;;;;;5103109;28;20399;-86
2021/11/16 04:14:22;;;;;;;16.80;13.27;;;;;;;;;;5098790;28;20409;-86
2021/11/16 04:16:52;;;;;;;18.50;13.57;;;;;;;;;;5103450;28;21274;-87
2021/11/16 04:19:19;;;;;;;19.00;13.57;;;;;;;;;;5101400;28;20444;-86
2021/11/16 04:21:46;;;;;;;18.00;13.02;;;;;;;;;;5103314;28;20760;-86
2021/11/16 04:24:12;;;;;;;17.95;13.40;;;;;;;;;;5102793;28;20402;-86
2021/11/16 04:26:39;;;;;;;19.75;13.85;;;;;;;;;;5099206;28;20421;-86
2021/11/16 04:29:06;;;;;;;18.17;13.55;;;;;;;;;;5102394;28;20410;-86
2021/11/16 04:31:33;;;;;;;18.40;13.60;;;;;;;;;;5101885;28;20431;-86
2021/11/16 04:34:04;;;;;;;18.13;13.65;;;;;;;;;;5102298;28;20489;-86
2021/11/16 04:36:31;;;;;;;17.67;13.55;;;;;;;;;;5103640;28;20426;-87
2021/11/16 04:38:58;;;;;;;18.95;14.60;;;;;;;;;;5101263;28;20403;-86
2021/11/16 04:41:25;;;;;;;17.50;13.50;;;;;;;;;;5102519;28;20399;-85
2021/11/16 04:43:54;;;;;;;19.85;13.88;;;;;;;;;;5102860;28;20449;-87
2021/11/16 04:46:23;;;;;;;18.30;13.73;;;;;;;;;;5102618;28;20720;-86
2021/11/16 04:48:57;;;;;;;18.63;13.60;;;;;;;;;;5105921;28;20893;-86
2021/11/16 04:51:49;;;;;;;17.80;13.75;;;;;;;;;;5104658;28;20748;-86
2021/11/16 04:54:31;;;;;;;18.67;14.35;;;;;;;;;;5098678;28;20485;-86
2021/11/16 04:59:54;;;;;;;18.30;13.83;;;;;;;;;;5061449;28;20455;-86
2021/11/16 05:02:37;;;;;;;17.13;13.07;;;;;;;;;;5097033;28;20400;-86
2021/11/16 05:05:08;;;;;;;16.95;13.18;;;;;;;;;;5098789;27;20412;-86
2021/11/16 05:07:37;;;;;;;15.57;12.60;;;;;;;;;;5106672;27;20454;-86
2021/11/16 05:10:07;;;;;;;17.23;12.82;;;;;;;;;;5115172;27;20436;-86
2021/11/16 05:12:34;;;;;;;17.83;13.20;;;;;;;;;;5112789;27;20402;-86
2021/11/16 05:15:03;;;;;;;16.38;12.75;;;;;;;;;;5116153;27;20418;-86
2021/11/16 05:17:30;;;;;;;17.23;12.55;;;;;;;;;;5114100;27;20404;-88
2021/11/16 05:19:57;;;;;;;19.33;13.10;;;;;;;;;;5106899;27;20400;-87
2021/11/16 05:22:24;;;;;;;17.30;12.98;;;;;;;;;;5117976;27;20682;-86
2021/11/16 05:24:53;;;;;;;17.65;12.80;;;;;;;;;;5138146;27;20389;-86
2021/11/16 05:27:20;;;;;;;18.30;13.73;;;;;;;;;;5122427;27;20406;-86
2021/11/16 05:29:47;;;;;;;16.75;13.52;;;;;;;;;;5110997;27;20406;-86
2021/11/16 05:32:14;;;;;;;18.15;13.73;;;;;;;;;;5109362;27;20437;-86
2021/11/16 05:34:41;;;;;;;18.73;13.80;;;;;;;;;;5106481;27;20404;-86
2021/11/16 05:37:08;;;;;;;18.17;13.63;;;;;;;;;;5111679;27;20431;-86
2021/11/16 05:39:35;;;;;;;17.45;13.45;;;;;;;;;;5114975;27;20403;-87
2021/11/16 05:42:03;;;;;;;18.00;13.67;;;;;;;;;;5112276;27;20960;-86
2021/11/16 05:44:32;;;;;;;18.50;13.90;;;;;;;;;;5108887;27;20446;-86
2021/11/16 05:46:59;;;;;;;18.00;13.15;;;;;;;;;;5113106;27;20449;-86
2021/11/16 05:49:31;;;;;;;17.90;13.18;;;;;;;;;;5108096;28;20469;-87
2021/11/16 05:51:59;;;;;;;17.05;13.55;;;;;;;;;;5111702;28;20732;-85
2021/11/16 05:54:29;;;;;;;16.98;13.77;;;;;;;;;;5111250;27;20396;-86
2021/11/16 05:56:57;;;;;;;18.38;14.05;;;;;;;;;;5104983;28;20883;-86
2021/11/16 05:59:27;;;;;;;16.77;13.13;;;;;;;;;;5112677;28;20403;-86
2021/11/16 06:01:54;;;;;;;19.65;13.90;;;;;;;;;;5108196;28;20405;-86
2021/11/16 06:04:21;;;;;;;19.88;14.30;;;;;;;;;;5109655;28;20430;-87
2021/11/16 06:06:48;;;;;;;20.75;14.55;;;;;;;;;;5112301;27;20405;-86
2021/11/16 06:09:15;;;;;;;19.85;14.20;;;;;;;;;;5110155;28;20406;-86
2021/11/16 06:11:42;;;;;;;20.13;13.98;;;;;;;;;;5112477;27;20399;-86
2021/11/16 06:14:09;;;;;;;17.58;13.40;;;;;;;;;;5111058;28;20413;-86
2021/11/16 06:16:37;;;;;;;17.17;13.87;;;;;;;;;;5113535;28;20534;-86
2021/11/16 06:19:06;;;;;;;18.75;13.57;;;;;;;;;;5110565;27;20463;-86
2021/11/16 06:21:33;;;;;;;16.95;13.27;;;;;;;;;;5111986;28;20397;-86
2021/11/16 06:24:01;;;;;;;19.50;14.18;;;;;;;;;;5111105;28;20813;-85
2021/11/16 06:26:32;;;;;;;18.38;13.40;;;;;;;;;;5114127;28;20400;-84
2021/11/16 06:28:59;;;;;;;16.70;13.10;;;;;;;;;;5111814;28;20516;-84
2021/11/16 06:31:27;;;;;;;18.73;13.82;;;;;;;;;;5108413;28;20408;-85
2021/11/16 06:33:58;;;;;;;17.13;13.15;;;;;;;;;;5108100;28;20838;-86
2021/11/16 06:36:28;;;;;;;18.05;13.68;;;;;;;;;;5106449;28;20501;-85
2021/11/16 06:38:57;;;;;;;19.95;14.13;;;;;;;;;;5108819;28;20398;-85
2021/11/16 06:41:24;;;;;;;17.50;12.95;;;;;;;;;;5115232;27;20397;-88
2021/11/16 06:43:50;;;;;;;17.30;13.75;;;;;;;;;;5113007;28;20411;-87
2021/11/16 06:46:17;;;;;;;18.52;13.10;;;;;;;;;;5111455;28;20839;-86
2021/11/16 06:48:44;;;;;;;18.08;13.55;;;;;;;;;;5109069;28;20397;-85
2021/11/16 06:51:13;;;;;;;17.98;13.50;;;;;;;;;;5109463;27;20425;-86
2021/11/16 06:53:40;;;;;;;18.83;14.05;;;;;;;;;;5107506;27;20888;-87
2021/11/16 06:56:07;;;;;;;18.60;14.27;;;;;;;;;;5112810;27;20429;-85
2021/11/16 06:58:35;;;;;;;19.30;13.55;;;;;;;;;;5114320;27;20499;-87
2021/11/16 07:01:04;;;;;;;17.38;13.02;;;;;;;;;;5110584;27;20401;-87
2021/11/16 07:03:32;;;;;;;18.00;13.43;;;;;;;;;;5117055;27;20418;-87
2021/11/16 07:06:00;;;;;;;19.77;13.63;;;;;;;;;;5124051;27;20423;-88
2021/11/16 07:08:34;;;;;;;17.98;13.85;;;;;;;;;;5131847;27;20421;-83
2021/11/16 07:11:04;;;;;;;20.88;14.30;;;;;;;;;;5132060;27;20396;-87
2021/11/16 07:13:30;;;;;;;21.40;14.90;;;;;;;;;;5138890;27;20432;-84
2021/11/16 07:15:57;;;;;;;19.45;14.25;;;;;;;;;;5137019;27;20709;-87
2021/11/16 07:18:24;;;;;;;20.52;14.55;;;;;;;;;;5133332;27;20389;-86
2021/11/16 07:20:58;;;;;;;18.27;14.10;;;;;;;;;;5134681;27;20458;-85
2021/11/16 07:23:25;;;;;;;20.63;14.55;;;;;;;;;;5137924;27;20805;-84
2021/11/16 07:25:53;;;;;;;22.20;15.57;;;;;;;;;;5139529;27;20418;-85
2021/11/16 07:28:21;;;;;;;20.08;14.80;;;;;;;;;;5139076;27;20409;-85
2021/11/16 07:30:48;;;;;;;22.27;15.07;;;;;;;;;;5132098;27;20403;-87
2021/11/16 07:33:19;;;;;;;20.63;14.73;;;;;;;;;;5112743;27;20424;-84
2021/11/16 07:35:46;;;;;;;20.23;14.77;;;;;;;;;;5111825;27;20421;-87
2021/11/16 07:38:18;;;;;;;20.08;14.50;;;;;;;;;;5112094;27;20484;-85
2021/11/16 07:40:47;;;;;;;20.17;14.52;;;;;;;;;;5111111;27;20464;-85
2021/11/16 07:43:17;;;;;;;21.40;15.05;;;;;;;;;;5104689;27;20417;-85
2021/11/16 07:45:45;;;;;;;19.98;14.95;;;;;;;;;;5109748;27;20741;-85
2021/11/16 07:48:14;;;;;;;20.38;14.98;;;;;;;;;;5115740;27;20406;-85
2021/11/16 07:50:46;;;;;;;20.55;15.15;;;;;;;;;;5108021;27;20561;-85
2021/11/16 07:53:17;;;;;;;21.83;15.43;;;;;;;;;;5105059;27;20480;-85
2021/11/16 07:55:46;;;;;;;22.27;15.27;;;;;;;;;;5113480;27;20406;-85
2021/11/16 07:58:15;;;;;;;21.30;15.27;;;;;;;;;;5113981;27;20919;-86
2021/11/16 08:00:47;;;;;;;21.33;15.27;;;;;;;;;;5112534;27;20392;-86
2021/11/16 08:03:18;;;;;;;21.40;14.93;;;;;;;;;;5108938;27;20406;-85
2021/11/16 08:05:55;;;;;;;22.45;15.35;;;;;;;;;;5108203;27;20784;-86
2021/11/16 08:08:55;;;;;;;21.35;16.00;;;;;;;;;;5115031;27;20812;-86
2021/11/16 08:11:27;;;;;;;23.15;15.18;;;;;;;;;;5110344;27;20513;-86
2021/11/16 08:13:58;;;;;;;20.15;14.80;;;;;;;;;;5107023;27;20404;-86
2021/11/16 08:16:26;;;;;;;20.77;15.15;;;;;;;;;;5111192;27;20420;-86
2021/11/16 08:18:58;;;;;;;22.50;15.50;;;;;;;;;;5112766;27;20603;-86
2021/11/16 08:21:27;;;;;;;20.35;15.23;;;;;;;;;;5113170;27;20464;-86
2021/11/16 08:23:57;;;;;;;22.45;15.48;;;;;;;;;;5117501;27;20405;-85
2021/11/16 08:26:28;;;;;;;22.47;16.10;;;;;;;;;;5113558;27;20397;-86
2021/11/16 08:28:57;;;;;;;21.10;15.43;;;;;;;;;;5115976;27;20409;-85
2021/11/16 08:31:25;;;;;;;20.92;15.25;;;;;;;;;;5111228;27;20400;-86
2021/11/16 08:33:54;;;;;;;19.63;15.05;;;;;;;;;;5112977;27;20393;-86
2021/11/16 08:36:27;;;;;;;23.42;16.58;;;;;;;;;;5107363;27;20424;-85
2021/11/16 08:38:56;;;;;;;23.45;15.90;;;;;;;;;;5121619;27;20403;-86
2021/11/16 08:41:30;;;;;;;23.77;16.00;;;;;;;;;;5138712;27;20395;-85
2021/11/16 08:44:10;;;;;;;21.55;15.63;;;;;;;;;;5120610;28;20464;-86
2021/11/16 08:46:37;;;;;;;22.27;16.40;;;;;;;;;;5113506;27;20406;-86
2021/11/16 08:49:05;;;;;;;24.43;15.87;;;;;;;;;;5111654;27;20400;-85
2021/11/16 08:51:40;;;;;;;22.07;16.17;;;;;;;;;;5109935;27;20395;-86
2021/11/16 08:54:07;;;;;;;22.63;15.60;;;;;;;;;;5114152;27;20414;-86
2021/11/16 08:56:38;;;;;;;23.83;16.63;;;;;;;;;;5117602;27;20421;-86
2021/11/16 08:59:13;;;;;;;21.27;15.67;;;;;;;;;;5112697;27;20391;-85
2021/11/16 09:01:40;;;;;;;22.47;15.93;;;;;;;;;;5109686;27;20406;-85
2021/11/16 09:04:09;;;;;;;20.13;15.23;;;;;;;;;;5112924;27;20418;-86
2021/11/16 09:06:41;;;;;;;20.27;15.18;;;;;;;;;;5093241;27;20795;-86
2021/11/16 09:09:13;;;;;;;21.65;14.98;;;;;;;;;;5094038;28;20406;-86
2021/11/16 09:11:55;;;;;;;20.70;15.27;;;;;;;;;;5113935;27;20409;-86
2021/11/16 09:14:24;;;;;;;21.63;15.35;;;;;;;;;;5109902;27;20384;-86
2021/11/16 09:16:52;;;;;;;22.48;14.75;;;;;;;;;;5111745;27;20766;-86
2021/11/16 09:19:32;;;;;;;21.13;14.93;;;;;;;;;;5108232;27;20409;-86
2021/11/16 09:22:00;;;;;;;20.55;14.88;;;;;;;;;;5111202;27;20410;-86
2021/11/16 09:24:32;;;;;;;21.25;15.00;;;;;;;;;;5110373;27;20406;-86
2021/11/16 09:27:11;;;;;;;19.88;14.57;;;;;;;;;;5109209;27;20896;-87
2021/11/16 09:29:41;;;;;;;17.20;13.90;;;;;;;;;;5106618;27;20395;-86
2021/11/16 09:32:10;;;;;;;20.23;14.48;;;;;;;;;;5110713;27;20897;-80
2021/11/16 09:34:40;;;;;;;20.13;14.82;;;;;;;;;;5104683;28;20435;-86
2021/11/16 09:37:12;;;;;;;20.67;15.30;;;;;;;;;;5111375;27;20418;-87
2021/11/16 09:39:42;;;;;;;21.45;14.98;;;;;;;;;;5127863;27;20401;-87
2021/11/16 09:42:12;;;;;;;21.23;15.25;;;;;;;;;;5128605;27;20431;-86
2021/11/16 09:44:46;;;;;;;23.87;15.67;;;;;;;;;;5114559;27;20388;-88
2021/11/16 09:47:17;;;;;;;19.55;15.35;;;;;;;;;;5108705;28;20405;-86
2021/11/16 09:49:46;;;;;;;19.58;15.02;;;;;;;;;;5106224;28;20403;-86
2021/11/16 09:52:16;;;;;;;19.85;15.15;;;;;;;;;;5105768;27;20420;-86
2021/11/16 09:54:49;;;;;;;21.37;15.60;;;;;;;;;;5116973;28;20395;-87
2021/11/16 09:57:16;;;;;;;22.67;15.82;;;;;;;;;;5121753;28;20880;-86
2021/11/16 09:59:47;;;;;;;21.52;15.50;;;;;;;;;;5132939;28;20399;-86
2021/11/16 10:02:24;;;;;;;21.90;15.82;;;;;;;;;;5108838;28;20404;-86
2021/11/16 10:04:53;;;;;;;22.13;16.35;;;;;;;;;;5105568;28;20405;-87
2021/11/16 10:07:21;;;;;;;21.35;16.17;;;;;;;;;;5125578;28;20394;-86
2021/11/16 10:09:49;;;;;;;24.60;17.00;;;;;;;;;;5130356;28;20440;-86
2021/11/16 10:12:18;;;;;;;23.75;16.30;;;;;;;;;;5121369;28;20402;-86
2021/11/16 10:14:46;;;;;;;22.50;16.42;;;;;;;;;;5107743;28;20874;-85
2021/11/16 10:17:13;;;;;;;21.65;16.13;;;;;;;;;;5113484;28;20506;-85
2021/11/16 10:19:40;;;;;;;21.73;15.90;;;;;;;;;;5107740;28;20408;-85
2021/11/16 10:22:11;;;;;;;25.02;17.00;;;;;;;;;;5106792;28;20414;-85
2021/11/16 10:24:40;;;;;;;23.27;16.75;;;;;;;;;;5110750;28;20494;-86
2021/11/16 10:27:30;;;;;;;21.53;15.63;;;;;;;;;;5113797;27;21223;-85
2021/11/16 10:30:21;;;;;;;20.88;15.77;;;;;;;;;;5115312;27;20411;-86
2021/11/16 10:33:06;;;;;;;22.75;16.30;;;;;;;;;;5112633;27;20409;-86
2021/11/16 10:35:33;;;;;;;22.05;16.58;;;;;;;;;;5111182;27;20484;-85
2021/11/16 10:38:04;;;;;;;25.52;17.92;;;;;;;;;;5112347;27;20457;-86
2021/11/16 10:40:31;;;;;;;24.05;16.95;;;;;;;;;;5115157;27;20514;-86
2021/11/16 10:43:01;;;;;;;23.55;16.85;;;;;;;;;;5111265;27;20397;-86
2021/11/16 10:45:32;;;;;;;24.23;17.88;;;;;;;;;;5113126;27;20400;-84
2021/11/16 10:48:03;;;;;;;24.70;17.33;;;;;;;;;;5111662;27;20400;-84
2021/11/16 10:50:31;;;;;;;23.23;16.83;;;;;;;;;;5104553;27;20425;-85
2021/11/16 10:53:03;;;;;;;24.30;17.27;;;;;;;;;;5112263;27;20418;-85
2021/11/16 10:55:45;;;;;;;24.37;17.07;;;;;;;;;;5109275;27;20410;-85
2021/11/16 10:58:15;;;;;;;23.33;16.92;;;;;;;;;;5109358;27;20500;-84
2021/11/16 11:00:48;;;;;;;26.17;17.90;;;;;;;;;;5111543;27;20406;-85
2021/11/16 11:03:24;;;;;;;22.85;17.42;;;;;;;;;;5104397;27;20407;-85
2021/11/16 11:05:56;;;;;;;24.20;17.92;;;;;;;;;;5111591;27;20421;-84
2021/11/16 11:08:31;;;;;;;23.38;17.85;;;;;;;;;;5110552;27;20408;-85
2021/11/16 11:10:58;;;;;;;22.60;17.45;;;;;;;;;;5106122;27;20393;-85
2021/11/16 11:13:26;;;;;;;25.65;18.60;;;;;;;;;;5109420;27;20775;-84
2021/11/16 11:15:57;;;;;;;23.80;17.65;;;;;;;;;;5111504;27;20398;-85
2021/11/16 11:18:36;;;;;;;23.77;17.33;;;;;;;;;;5110084;27;20421;-85
2021/11/16 11:21:05;;;;;;;24.10;17.30;;;;;;;;;;5110298;27;20893;-85
2021/11/16 11:23:37;;;;;;;25.83;17.98;;;;;;;;;;5106740;27;20874;-85
2021/11/16 11:26:38;;;;;;;23.30;17.20;;;;;;;;;;5106678;27;20754;-85
2021/11/16 11:29:19;;;;;;;21.95;16.95;;;;;;;;;;5046766;28;20501;-84
2021/11/16 11:31:50;;;;;;;24.33;18.00;;;;;;;;;;5103986;27;20402;-85
2021/11/16 11:34:18;;;;;;;24.42;17.98;;;;;;;;;;5103093;28;20402;-85
2021/11/16 11:36:45;;;;;;;22.50;17.48;;;;;;;;;;5108191;27;20415;-85
2021/11/16 11:39:18;;;;;;;24.17;17.65;;;;;;;;;;5106708;27;20849;-84
2021/11/16 11:41:51;;;;;;;23.17;17.30;;;;;;;;;;5108647;27;20409;-85
2021/11/16 11:44:19;;;;;;;24.38;17.90;;;;;;;;;;5114219;27;20791;-85
2021/11/16 11:46:55;;;;;;;23.48;17.20;;;;;;;;;;5111856;27;20399;-85
2021/11/16 11:49:23;;;;;;;25.35;17.15;;;;;;;;;;5110893;27;21117;-85
2021/11/16 11:51:51;;;;;;;20.60;15.93;;;;;;;;;;5110783;27;20395;-84
2021/11/16 11:54:18;;;;;;;23.65;16.60;;;;;;;;;;5114201;27;21184;-85
2021/11/16 11:56:46;;;;;;;25.65;17.20;;;;;;;;;;5111422;27;20892;-84
2021/11/16 11:59:14;;;;;;;22.13;16.15;;;;;;;;;;5108539;27;20394;-86
2021/11/16 12:01:42;;;;;;;22.92;16.27;;;;;;;;;;5116492;27;20410;-85
2021/11/16 12:04:13;;;;;;;23.45;16.00;;;;;;;;;;5108263;27;20414;-85
2021/11/16 12:06:40;;;;;;;21.23;15.10;;;;;;;;;;5113541;27;20449;-85
2021/11/16 12:09:08;;;;;;;20.88;15.48;;;;;;;;;;5106694;27;20403;-83
2021/11/16 12:11:37;;;;;;;22.42;16.30;;;;;;;;;;5113956;27;20867;-84
2021/11/16 12:14:15;;;;;;;23.10;18.45;;;;;;;;;;5111974;27;20864;-84
2021/11/16 12:16:51;;;;;;;23.17;15.30;;;;;;;;;;5118226;27;20405;-86
2021/11/16 12:19:21;;;;;;;20.75;14.82;;;;;;;;;;5113429;27;20434;-86
2021/11/16 12:21:49;;;;;;;21.20;15.43;;;;;;;;;;5120522;27;20487;-86
2021/11/16 12:24:18;;;;;;;20.40;15.07;;;;;;;;;;5110932;27;20405;-86
2021/11/16 12:27:01;;;;;;;20.20;15.20;;;;;;;;;;5125789;27;20390;-87
2021/11/16 12:29:31;;;;;;;22.25;15.73;;;;;;;;;;5128532;27;20398;-85
2021/11/16 12:32:14;;;;;;;19.88;14.80;;;;;;;;;;5115836;27;20406;-86
2021/11/16 12:34:48;;;;;;;21.10;15.80;;;;;;;;;;5108050;27;20521;-87
2021/11/16 12:37:38;;;;;;;20.10;15.18;;;;;;;;;;5108682;27;20441;-87
2021/11/16 12:40:09;;;;;;;20.85;15.50;;;;;;;;;;5108991;27;20390;-86
2021/11/16 12:42:37;;;;;;;21.85;15.57;;;;;;;;;;5109608;27;20900;-86
2021/11/16 12:45:08;;;;;;;20.48;14.98;;;;;;;;;;5107898;27;20409;-86
2021/11/16 12:47:55;;;;;;;20.23;14.85;;;;;;;;;;5110536;27;20401;-86
2021/11/16 12:50:23;;;;;;;23.00;15.17;;;;;;;;;;5100338;27;20910;-86
2021/11/16 12:52:52;;;;;;;22.10;15.65;;;;;;;;;;5106362;27;20494;-87
2021/11/16 12:55:24;;;;;;;21.38;15.30;;;;;;;;;;5110734;27;20402;-86
2021/11/16 12:57:52;;;;;;;19.92;14.30;;;;;;;;;;5106773;27;20536;-86
2021/11/16 13:00:32;;;;;;;22.95;15.20;;;;;;;;;;5108967;27;20399;-86
2021/11/16 13:02:59;;;;;;;22.30;15.70;;;;;;;;;;5106917;27;21050;-87
2021/11/16 13:05:37;;;;;;;22.33;15.55;;;;;;;;;;5103947;27;20414;-86
2021/11/16 13:08:07;;;;;;;22.27;15.13;;;;;;;;;;5107883;27;20765;-84
2021/11/16 13:10:45;;;;;;;20.80;14.70;;;;;;;;;;5107170;27;20673;-84
2021/11/16 13:13:17;;;;;;;19.42;14.68;;;;;;;;;;5108811;27;20414;-86
2021/11/16 13:15:57;;;;;;;19.92;15.13;;;;;;;;;;5109125;27;20394;-86
2021/11/16 13:18:35;;;;;;;23.35;16.90;;;;;;;;;;5108479;27;20422;-86
2021/11/16 13:21:30;;;;;;;21.23;15.57;;;;;;;;;;5108384;27;20394;-86
2021/11/16 13:24:01;;;;;;;26.90;19.13;;;;;;;;;;5110502;27;20489;-86
2021/11/16 13:26:35;;;;;;;33.05;21.65;;;;;;;;;;5106594;27;20414;-86
2021/11/16 13:29:19;;;;;;;32.63;22.53;;;;;;;;;;5108470;27;20402;-86
2021/11/16 13:31:51;;;;;;;36.88;24.98;;;;;;;;;;5108122;27;20395;-86
2021/11/16 13:34:20;;;;;;;24.23;16.40;;;;;;;;;;5103793;27;20409;-86
2021/11/16 13:36:54;;;;;;;21.98;16.67;;;;;;;;;;5108581;27;20396;-86
2021/11/16 13:39:33;;;;;;;23.20;16.60;;;;;;;;;;5108511;27;20808;-86
2021/11/16 13:42:02;;;;;;;27.83;19.17;;;;;;;;;;5106358;27;20407;-86
2021/11/16 13:44:33;;;;;;;23.70;18.00;;;;;;;;;;5107461;27;20881;-86
2021/11/16 13:47:03;;;;;;;25.20;18.27;;;;;;;;;;5109706;27;20436;-86
2021/11/16 13:49:35;;;;;;;22.63;17.23;;;;;;;;;;5108244;27;20405;-86
2021/11/16 13:52:06;;;;;;;24.27;18.25;;;;;;;;;;5107040;28;20415;-85
2021/11/16 13:54:34;;;;;;;26.27;18.10;;;;;;;;;;5108156;28;20403;-86
2021/11/16 13:57:02;;;;;;;24.30;17.70;;;;;;;;;;5105986;28;20406;-86
2021/11/16 13:59:30;;;;;;;23.95;17.58;;;;;;;;;;5108646;28;20429;-86
2021/11/16 14:02:00;;;;;;;24.95;18.73;;;;;;;;;;5110948;27;20408;-86
2021/11/16 14:04:27;;;;;;;23.70;17.85;;;;;;;;;;5111234;27;20410;-86
2021/11/16 14:07:14;;;;;;;24.53;17.67;;;;;;;;;;5111714;27;20402;-83
2021/11/16 14:09:41;;;;;;;27.15;18.80;;;;;;;;;;5112596;27;20398;-86
2021/11/16 14:12:09;;;;;;;25.92;19.00;;;;;;;;;;5124700;27;20373;-86
2021/11/16 14:14:37;;;;;;;26.27;18.60;;;;;;;;;;5139512;27;20472;-86
2021/11/16 14:17:10;;;;;;;25.40;18.65;;;;;;;;;;5138293;27;20365;-86
2021/11/16 14:19:47;;;;;;;26.40;18.60;;;;;;;;;;5140023;27;20448;-86
2021/11/16 14:22:33;;;;;;;26.55;19.92;;;;;;;;;;5132888;27;20386;-85
2021/11/16 14:25:11;;;;;;;26.52;19.15;;;;;;;;;;5139818;27;20446;-86
2021/11/16 14:27:38;;;;;;;29.23;19.98;;;;;;;;;;5142231;27;20383;-86
2021/11/16 14:30:08;;;;;;;26.73;19.63;;;;;;;;;;5139941;27;20419;-85
2021/11/16 14:32:36;;;;;;;28.25;19.80;;;;;;;;;;5128420;27;20434;-85
2021/11/16 14:35:03;;;;;;;25.77;19.33;;;;;;;;;;5113411;27;20439;-84
2021/11/16 14:37:31;;;;;;;29.15;20.77;;;;;;;;;;5119793;27;20403;-85